Hdms Esbern Snare — OUFB — position and weather

sailwx.info

Track history (hours):
 
Tides and Currents Weather Stations Pressure Air Temp Water Temp Dewpoint Dewpoint Depression Visibility Wind Speed Wind Dir Waves Ship Positions

Hdms Esbern Snare

Last reported at 2017-Feb-18 23:31 UTC. Time now 2017-Feb-24 10:39 UTC.
Position N 57°26' E 010°32'.

Length 137 m.

Type: Military. MMSI: 36699999.

Date/timePositionNaut miles runAvg speedWind from/ knotsBaromVisibWave heightAir tempDewpointWater temp
2017-Feb-18 23:31N 57°26' E 010°32'0 0.0
2017-Feb-18 22:30N 57°26' E 010°32'0 0.0
2017-Feb-18 02:06N 57°26' E 010°32'0 0.0
2017-Feb-18 01:33N 57°26' E 010°32'0 0.0
2017-Feb-18 00:27N 57°26' E 010°32'0 0.0
2017-Feb-17 23:33N 57°26' E 010°32'0 0.0
2017-Feb-16 15:26N 57°26' E 010°32'0 0.0
2017-Feb-14 23:21N 57°26' E 010°32'0 0.0
2017-Feb-14 22:33N 57°26' E 010°32'0 0.0
2017-Feb-14 19:30N 57°26' E 010°32'0 0.0
2017-Feb-14 18:03N 57°26' E 010°32'0 0.0
2017-Feb-14 17:33N 57°26' E 010°32'0 0.0
2017-Feb-14 16:21N 57°26' E 010°32'0 0.0
2017-Feb-14 15:33N 57°26' E 010°32'0 0.0
2017-Feb-14 09:33N 57°26' E 010°33'6 5.9
2017-Feb-14 08:33N 57°29' E 010°41'1717.0
2017-Feb-14 07:33N 57°46' E 010°37'2120.9
2017-Feb-14 06:33N 57°42' E 009°59'2020.5
2017-Feb-14 05:33N 57°31' E 009°28'1919.4
2017-Feb-14 04:33N 57°19' E 008°58'2222.5
2017-Feb-14 03:33N 57°06' E 008°24'8023.0
2017-Feb-14 00:05N 55°58' E 007°09'1323.5
2017-Feb-13 23:33N 55°48' E 006°57'3023.6
2017-Feb-13 22:17N 55°22' E 006°30'17522.6
2017-Feb-13 14:31N 52°47' E 004°10'1818.8
2017-Feb-13 13:33N 52°31' E 004°24'8 8.1
2017-Feb-13 12:33N 52°28' E 004°37'2 1.8
2017-Feb-13 11:33N 52°28' E 004°40'9 8.6
2017-Feb-13 10:33N 52°24' E 004°53'2 2.4
2017-Feb-13 09:33N 52°23' E 004°55'0 0.0
2017-Feb-13 08:33N 52°23' E 004°55'0 0.0
2017-Feb-13 07:33N 52°23' E 004°55'0 0.0
2017-Feb-13 06:33N 52°23' E 004°55'0 0.0
2017-Feb-13 05:33N 52°23' E 004°55'0 0.0
2017-Feb-13 04:33N 52°23' E 004°55'0 0.0
2017-Feb-13 03:33N 52°23' E 004°55'0 0.0
2017-Feb-13 02:33N 52°23' E 004°55'0 0.0
2017-Feb-13 01:33N 52°23' E 004°55'0 0.0
2017-Feb-13 00:33N 52°23' E 004°55'0 0.0
2017-Feb-12 23:33N 52°23' E 004°55'0 0.0
2017-Feb-12 22:33N 52°23' E 004°55'0 0.0
2017-Feb-12 21:33N 52°23' E 004°55'0 0.0
2017-Feb-12 20:33N 52°23' E 004°55'0 0.0
2017-Feb-12 19:33N 52°23' E 004°55'0 0.0
2017-Feb-12 18:33N 52°23' E 004°55'0 0.0
2017-Feb-12 17:30N 52°23' E 004°55'0 0.0
2017-Feb-12 16:33N 52°23' E 004°55'0 0.0
2017-Feb-12 15:33N 52°23' E 004°55'0 0.0
2017-Feb-12 14:30N 52°23' E 004°55'0 0.0
2017-Feb-12 13:33N 52°23' E 004°55'0 0.0
2017-Feb-12 12:32N 52°23' E 004°55'0 0.0
2017-Feb-12 11:32N 52°23' E 004°55'0 0.0
2017-Feb-12 10:32N 52°23' E 004°55'0 0.0
2017-Feb-12 09:32N 52°23' E 004°55'0 0.0
2017-Feb-12 08:32N 52°23' E 004°55'0 0.0
2017-Feb-12 07:32N 52°23' E 004°55'0 0.0
2017-Feb-12 06:32N 52°23' E 004°55'0 0.0
2017-Feb-12 05:32N 52°23' E 004°55'0 0.0
2017-Feb-12 04:32N 52°23' E 004°55'0 0.0
2017-Feb-12 03:32N 52°23' E 004°55'0 0.0
2017-Feb-12 02:32N 52°23' E 004°55'0 0.0
2017-Feb-12 01:32N 52°23' E 004°55'0 0.0
2017-Feb-12 00:32N 52°23' E 004°55'0 0.0
2017-Feb-11 23:32N 52°23' E 004°55'0 0.0
2017-Feb-11 22:32N 52°23' E 004°55'0 0.0
2017-Feb-11 21:32N 52°23' E 004°55'0 0.0
2017-Feb-11 20:32N 52°23' E 004°55'0 0.0
2017-Feb-11 19:32N 52°23' E 004°55'0 0.0
2017-Feb-11 18:32N 52°23' E 004°55'0 0.0
2017-Feb-11 17:32N 52°23' E 004°55'0 0.0
2017-Feb-11 16:32N 52°23' E 004°55'0 0.0
2017-Feb-11 15:32N 52°23' E 004°55'0 0.0
2017-Feb-11 14:26N 52°23' E 004°55'0 0.0
2017-Feb-11 13:29N 52°23' E 004°55'0 0.0
2017-Feb-11 12:32N 52°23' E 004°55'0 0.0
2017-Feb-11 11:32N 52°23' E 004°55'0 0.0
2017-Feb-11 10:32N 52°23' E 004°55'0 0.0
2017-Feb-11 09:32N 52°23' E 004°55'0 0.0
2017-Feb-11 08:32N 52°23' E 004°55'0 0.0
2017-Feb-11 07:32N 52°23' E 004°55'0 0.0
2017-Feb-11 06:31N 52°23' E 004°55'0 0.0
2017-Feb-11 05:28N 52°23' E 004°55'0 0.0
2017-Feb-11 04:31N 52°23' E 004°55'0 0.0
2017-Feb-11 03:31N 52°23' E 004°55'0 0.0
2017-Feb-11 02:31N 52°23' E 004°55'0 0.0
2017-Feb-11 01:31N 52°23' E 004°55'0 0.0
2017-Feb-11 00:31N 52°23' E 004°55'0 0.0
2017-Feb-10 23:31N 52°23' E 004°55'0 0.0
2017-Feb-10 22:31N 52°23' E 004°55'0 0.0
2017-Feb-10 21:31N 52°23' E 004°55'0 0.0
2017-Feb-10 20:31N 52°23' E 004°55'0 0.0
2017-Feb-10 19:31N 52°23' E 004°55'0 0.0
2017-Feb-10 18:31N 52°23' E 004°55'0 0.0
2017-Feb-10 17:33N 52°23' E 004°55'5 5.1
2017-Feb-10 16:33N 52°25' E 004°48'8 7.6
2017-Feb-10 15:33N 52°28' E 004°37'1 0.7
2017-Feb-10 14:34N 52°28' E 004°35'6 5.6
2017-Feb-10 13:33N 52°29' E 004°26'1313.1
2017-Feb-10 12:33N 52°28' E 004°05'8318.9
2017-Feb-10 08:11N 51°36' E 002°21'1320.3
2017-Feb-10 07:33N 51°26' E 002°08'2019.6
2017-Feb-10 06:34N 51°12' E 001°47'2019.6
2017-Feb-10 05:33N 50°55' E 001°29'5919.4
2017-Feb-10 02:33N 50°22' E 000°13'12520.9
2017-Feb-09 20:34N 49°50' W 002°55'2020.2
2017-Feb-09 19:33N 49°57' W 003°25'2222.0
2017-Feb-09 18:33N 50°11' W 003°51'1514.6
2017-Feb-09 17:32N 50°21' W 004°09'0 0.0
2017-Feb-09 16:32N 50°21' W 004°09'4 3.2
2017-Feb-09 15:21N 50°17' W 004°11'4 0.5
2017-Feb-09 07:32N 50°21' W 004°09'0 0.0
2017-Feb-09 06:32N 50°21' W 004°09'0 0.0
2017-Feb-09 05:32N 50°21' W 004°09'0 0.0
2017-Feb-09 04:32N 50°21' W 004°09'0 0.0
2017-Feb-09 03:32N 50°21' W 004°09'0 0.0
2017-Feb-09 02:32N 50°21' W 004°09'0 0.0
2017-Feb-09 01:32N 50°21' W 004°09'0 0.0
2017-Feb-09 00:31N 50°21' W 004°09'0 0.0
2017-Feb-08 23:31N 50°21' W 004°09'  
Track history (hours):
 
Tides and Currents Weather Stations Pressure Air Temp Water Temp Dewpoint Dewpoint Depression Visibility Wind Speed Wind Dir Waves Ship Positions

Hdms Esbern Snare

Last reported at 2017-Feb-18 23:31 UTC. Time now 2017-Feb-24 10:39 UTC.
Position N 57°26' E 010°32'.

Length 137 m.

Type: Military. MMSI: 36699999.

Date/timePositionNaut miles runAvg speedWind from/ knotsBaromVisibWave heightAir tempDewpointWater temp
2017-Feb-18 23:31N 57°26' E 010°32'0 0.0
2017-Feb-18 22:30N 57°26' E 010°32'0 0.0
2017-Feb-18 02:06N 57°26' E 010°32'0 0.0
2017-Feb-18 01:33N 57°26' E 010°32'0 0.0
2017-Feb-18 00:27N 57°26' E 010°32'0 0.0
2017-Feb-17 23:33N 57°26' E 010°32'0 0.0
2017-Feb-16 15:26N 57°26' E 010°32'0 0.0
2017-Feb-14 23:21N 57°26' E 010°32'0 0.0
2017-Feb-14 22:33N 57°26' E 010°32'0 0.0
2017-Feb-14 19:30N 57°26' E 010°32'0 0.0
2017-Feb-14 18:03N 57°26' E 010°32'0 0.0
2017-Feb-14 17:33N 57°26' E 010°32'0 0.0
2017-Feb-14 16:21N 57°26' E 010°32'0 0.0
2017-Feb-14 15:33N 57°26' E 010°32'0 0.0
2017-Feb-14 09:33N 57°26' E 010°33'6 5.9
2017-Feb-14 08:33N 57°29' E 010°41'1717.0
2017-Feb-14 07:33N 57°46' E 010°37'2120.9
2017-Feb-14 06:33N 57°42' E 009°59'2020.5
2017-Feb-14 05:33N 57°31' E 009°28'1919.4
2017-Feb-14 04:33N 57°19' E 008°58'2222.5
2017-Feb-14 03:33N 57°06' E 008°24'8023.0
2017-Feb-14 00:05N 55°58' E 007°09'1323.5
2017-Feb-13 23:33N 55°48' E 006°57'3023.6
2017-Feb-13 22:17N 55°22' E 006°30'17522.6
2017-Feb-13 14:31N 52°47' E 004°10'1818.8
2017-Feb-13 13:33N 52°31' E 004°24'8 8.1
2017-Feb-13 12:33N 52°28' E 004°37'2 1.8
2017-Feb-13 11:33N 52°28' E 004°40'9 8.6
2017-Feb-13 10:33N 52°24' E 004°53'2 2.4
2017-Feb-13 09:33N 52°23' E 004°55'0 0.0
2017-Feb-13 08:33N 52°23' E 004°55'0 0.0
2017-Feb-13 07:33N 52°23' E 004°55'0 0.0
2017-Feb-13 06:33N 52°23' E 004°55'0 0.0
2017-Feb-13 05:33N 52°23' E 004°55'0 0.0
2017-Feb-13 04:33N 52°23' E 004°55'0 0.0
2017-Feb-13 03:33N 52°23' E 004°55'0 0.0
2017-Feb-13 02:33N 52°23' E 004°55'0 0.0
2017-Feb-13 01:33N 52°23' E 004°55'0 0.0
2017-Feb-13 00:33N 52°23' E 004°55'0 0.0
2017-Feb-12 23:33N 52°23' E 004°55'0 0.0
2017-Feb-12 22:33N 52°23' E 004°55'0 0.0
2017-Feb-12 21:33N 52°23' E 004°55'0 0.0
2017-Feb-12 20:33N 52°23' E 004°55'0 0.0
2017-Feb-12 19:33N 52°23' E 004°55'0 0.0
2017-Feb-12 18:33N 52°23' E 004°55'0 0.0
2017-Feb-12 17:30N 52°23' E 004°55'0 0.0
2017-Feb-12 16:33N 52°23' E 004°55'0 0.0
2017-Feb-12 15:33N 52°23' E 004°55'0 0.0
2017-Feb-12 14:30N 52°23' E 004°55'0 0.0
2017-Feb-12 13:33N 52°23' E 004°55'0 0.0
2017-Feb-12 12:32N 52°23' E 004°55'0 0.0
2017-Feb-12 11:32N 52°23' E 004°55'0 0.0
2017-Feb-12 10:32N 52°23' E 004°55'0 0.0
2017-Feb-12 09:32N 52°23' E 004°55'0 0.0
2017-Feb-12 08:32N 52°23' E 004°55'0 0.0
2017-Feb-12 07:32N 52°23' E 004°55'0 0.0
2017-Feb-12 06:32N 52°23' E 004°55'0 0.0
2017-Feb-12 05:32N 52°23' E 004°55'0 0.0
2017-Feb-12 04:32N 52°23' E 004°55'0 0.0
2017-Feb-12 03:32N 52°23' E 004°55'0 0.0
2017-Feb-12 02:32N 52°23' E 004°55'0 0.0
2017-Feb-12 01:32N 52°23' E 004°55'0 0.0
2017-Feb-12 00:32N 52°23' E 004°55'0 0.0
2017-Feb-11 23:32N 52°23' E 004°55'0 0.0
2017-Feb-11 22:32N 52°23' E 004°55'0 0.0
2017-Feb-11 21:32N 52°23' E 004°55'0 0.0
2017-Feb-11 20:32N 52°23' E 004°55'0 0.0
2017-Feb-11 19:32N 52°23' E 004°55'0 0.0
2017-Feb-11 18:32N 52°23' E 004°55'0 0.0
2017-Feb-11 17:32N 52°23' E 004°55'0 0.0
2017-Feb-11 16:32N 52°23' E 004°55'0 0.0
2017-Feb-11 15:32N 52°23' E 004°55'0 0.0
2017-Feb-11 14:26N 52°23' E 004°55'0 0.0
2017-Feb-11 13:29N 52°23' E 004°55'0 0.0
2017-Feb-11 12:32N 52°23' E 004°55'0 0.0
2017-Feb-11 11:32N 52°23' E 004°55'0 0.0
2017-Feb-11 10:32N 52°23' E 004°55'0 0.0
2017-Feb-11 09:32N 52°23' E 004°55'0 0.0
2017-Feb-11 08:32N 52°23' E 004°55'0 0.0
2017-Feb-11 07:32N 52°23' E 004°55'0 0.0
2017-Feb-11 06:31N 52°23' E 004°55'0 0.0
2017-Feb-11 05:28N 52°23' E 004°55'0 0.0
2017-Feb-11 04:31N 52°23' E 004°55'0 0.0
2017-Feb-11 03:31N 52°23' E 004°55'0 0.0
2017-Feb-11 02:31N 52°23' E 004°55'0 0.0
2017-Feb-11 01:31N 52°23' E 004°55'0 0.0
2017-Feb-11 00:31N 52°23' E 004°55'0 0.0
2017-Feb-10 23:31N 52°23' E 004°55'0 0.0
2017-Feb-10 22:31N 52°23' E 004°55'0 0.0
2017-Feb-10 21:31N 52°23' E 004°55'0 0.0
2017-Feb-10 20:31N 52°23' E 004°55'0 0.0
2017-Feb-10 19:31N 52°23' E 004°55'0 0.0
2017-Feb-10 18:31N 52°23' E 004°55'0 0.0
2017-Feb-10 17:33N 52°23' E 004°55'5 5.1
2017-Feb-10 16:33N 52°25' E 004°48'8 7.6
2017-Feb-10 15:33N 52°28' E 004°37'1 0.7
2017-Feb-10 14:34N 52°28' E 004°35'6 5.6
2017-Feb-10 13:33N 52°29' E 004°26'1313.1
2017-Feb-10 12:33N 52°28' E 004°05'8318.9
2017-Feb-10 08:11N 51°36' E 002°21'1320.3
2017-Feb-10 07:33N 51°26' E 002°08'2019.6
2017-Feb-10 06:34N 51°12' E 001°47'2019.6
2017-Feb-10 05:33N 50°55' E 001°29'5919.4
2017-Feb-10 02:33N 50°22' E 000°13'12520.9
2017-Feb-09 20:34N 49°50' W 002°55'2020.2
2017-Feb-09 19:33N 49°57' W 003°25'2222.0
2017-Feb-09 18:33N 50°11' W 003°51'1514.6
2017-Feb-09 17:32N 50°21' W 004°09'0 0.0
2017-Feb-09 16:32N 50°21' W 004°09'4 3.2
2017-Feb-09 15:21N 50°17' W 004°11'4 0.5
2017-Feb-09 07:32N 50°21' W 004°09'0 0.0
2017-Feb-09 06:32N 50°21' W 004°09'0 0.0
2017-Feb-09 05:32N 50°21' W 004°09'0 0.0
2017-Feb-09 04:32N 50°21' W 004°09'0 0.0
2017-Feb-09 03:32N 50°21' W 004°09'0 0.0
2017-Feb-09 02:32N 50°21' W 004°09'0 0.0
2017-Feb-09 01:32N 50°21' W 004°09'0 0.0
2017-Feb-09 00:31N 50°21' W 004°09'0 0.0
2017-Feb-08 23:31N 50°21' W 004°09'  

Dump ship's entire track history